createdAt,value
2023-05-02T00:01:57.619Z,5.40
2023-05-02T00:04:25.007Z,5.30
2023-05-02T00:06:53.750Z,5.47
2023-05-02T00:09:21.514Z,6.07
2023-05-02T00:11:48.769Z,5.47
2023-05-02T00:14:16.084Z,5.67
2023-05-02T00:16:43.329Z,5.83
2023-05-02T00:19:10.623Z,5.70
2023-05-02T00:21:37.899Z,6.13
2023-05-02T00:24:05.219Z,5.57
2023-05-02T00:26:32.466Z,5.63
2023-05-02T00:29:00.709Z,5.83
2023-05-02T00:31:27.987Z,5.57
2023-05-02T00:33:55.623Z,5.73
2023-05-02T00:36:22.926Z,6.17
2023-05-02T00:38:50.182Z,6.17
2023-05-02T00:41:18.246Z,5.80
2023-05-02T00:43:45.615Z,5.90
2023-05-02T00:46:13.465Z,6.63
2023-05-02T00:48:41.305Z,5.67
2023-05-02T00:51:12.098Z,5.40
2023-05-02T00:53:39.702Z,5.67
2023-05-02T00:56:07.091Z,5.77
2023-05-02T00:58:34.625Z,5.37
2023-05-02T01:01:09.041Z,5.20
2023-05-02T01:03:39.777Z,5.20
2023-05-02T01:06:16.947Z,5.40
2023-05-02T01:08:57.182Z,4.97
2023-05-02T01:11:45.102Z,5.03
2023-05-02T01:14:12.734Z,5.30
2023-05-02T01:16:42.342Z,4.83
2023-05-02T01:19:13.836Z,4.40
2023-05-02T01:21:41.322Z,5.20
2023-05-02T01:24:13.649Z,4.90
2023-05-02T01:26:41.280Z,5.30
2023-05-02T01:29:09.667Z,5.43
2023-05-02T01:31:38.131Z,5.00
2023-05-02T01:34:06.344Z,5.13
2023-05-02T01:36:35.296Z,5.83
2023-05-02T01:39:03.128Z,5.70
2023-05-02T01:41:32.083Z,5.80
2023-05-02T01:44:00.203Z,5.53
2023-05-02T01:46:28.698Z,6.17
2023-05-02T01:48:58.287Z,6.37
2023-05-02T01:51:29.856Z,5.67
2023-05-02T01:53:57.815Z,6.20
2023-05-02T01:56:26.120Z,6.47
2023-05-02T01:58:56.601Z,5.90
2023-05-02T02:01:27.574Z,6.10
2023-05-02T02:03:59.358Z,5.83
2023-05-02T02:06:27.663Z,6.20
2023-05-02T02:08:55.261Z,6.37
2023-05-02T02:11:25.645Z,6.47
2023-05-02T02:13:55.917Z,5.90
2023-05-02T02:16:26.333Z,6.63
2023-05-02T02:18:55.888Z,7.10
2023-05-02T02:21:24.951Z,6.90
2023-05-02T02:23:52.843Z,8.27
2023-05-02T02:26:21.809Z,9.17
2023-05-02T02:28:49.361Z,8.00
2023-05-02T02:31:16.770Z,7.73
2023-05-02T02:33:44.390Z,7.80
2023-05-02T02:36:31.173Z,7.40
2023-05-02T02:39:01.305Z,7.60
2023-05-02T02:41:31.579Z,7.03
2023-05-02T02:44:06.946Z,8.33
2023-05-02T02:46:40.213Z,7.17
2023-05-02T02:49:16.569Z,7.67
2023-05-02T02:51:51.455Z,7.27
2023-05-02T02:54:27.121Z,8.03
2023-05-02T02:57:13.308Z,8.27
2023-05-02T02:59:42.989Z,7.90
2023-05-02T03:02:13.086Z,8.40
2023-05-02T03:04:45.219Z,9.23
2023-05-02T03:07:12.606Z,9.27
2023-05-02T03:09:43.769Z,15.77
2023-05-02T03:12:11.277Z,14.37
2023-05-02T03:14:39.048Z,19.30
2023-05-02T03:17:08.415Z,10.93
2023-05-02T03:19:36.049Z,10.27
2023-05-02T03:22:03.513Z,8.60
2023-05-02T03:24:30.790Z,8.83
2023-05-02T03:26:59.282Z,8.93
2023-05-02T03:29:28.875Z,8.83
2023-05-02T03:31:56.142Z,8.70
2023-05-02T03:34:23.884Z,8.10
2023-05-02T03:36:51.261Z,7.47
2023-05-02T03:39:18.559Z,8.47
2023-05-02T03:41:46.690Z,10.67
2023-05-02T03:44:14.340Z,10.33
2023-05-02T03:46:41.944Z,9.50
2023-05-02T03:49:09.623Z,9.67
2023-05-02T03:51:37.030Z,10.20
2023-05-02T03:54:04.313Z,10.90
2023-05-02T03:56:31.487Z,10.53
2023-05-02T03:58:58.748Z,18.07
2023-05-02T04:01:26.141Z,18.10
2023-05-02T04:03:53.536Z,13.17
2023-05-02T04:06:20.833Z,20.37
2023-05-02T04:08:48.404Z,15.60
2023-05-02T04:11:16.029Z,16.77
2023-05-02T04:13:43.264Z,13.13
2023-05-02T04:16:10.697Z,11.53
2023-05-02T04:18:38.354Z,13.47
2023-05-02T04:21:05.716Z,11.90
2023-05-02T04:23:33.782Z,12.97
2023-05-02T04:26:01.586Z,12.07
2023-05-02T04:28:29.503Z,12.07
2023-05-02T04:30:57.923Z,12.60
2023-05-02T04:33:26.289Z,12.37
2023-05-02T04:35:54.167Z,12.23
2023-05-02T04:38:21.910Z,11.63
2023-05-02T04:40:52.552Z,11.93
2023-05-02T04:43:21.447Z,12.80
2023-05-02T04:45:50.692Z,12.07
2023-05-02T04:48:18.544Z,14.50
2023-05-02T04:50:47.240Z,12.50
2023-05-02T04:53:16.095Z,14.20
2023-05-02T04:55:44.456Z,13.83
2023-05-02T04:58:14.467Z,14.20
2023-05-02T05:00:45.142Z,14.30
2023-05-02T05:03:13.104Z,15.23
2023-05-02T05:05:43.564Z,15.57
2023-05-02T05:08:11.689Z,15.37
2023-05-02T05:10:41.401Z,15.47
2023-05-02T05:13:10.893Z,14.37
2023-05-02T05:15:40.728Z,15.60
2023-05-02T05:18:10.614Z,18.00
2023-05-02T05:20:39.751Z,16.33
2023-05-02T05:23:08.651Z,19.63
2023-05-02T05:25:37.295Z,19.03
2023-05-02T05:28:06.256Z,17.27
2023-05-02T05:30:34.787Z,17.20
2023-05-02T05:33:03.291Z,17.70
2023-05-02T05:35:33.666Z,17.80
2023-05-02T05:38:02.887Z,17.40
2023-05-02T05:40:31.548Z,16.20
2023-05-02T05:42:59.940Z,16.00
2023-05-02T05:45:28.095Z,17.63
2023-05-02T05:47:56.584Z,15.17
2023-05-02T05:50:26.247Z,15.73
2023-05-02T05:52:54.802Z,15.13
2023-05-02T05:55:23.602Z,14.70
2023-05-02T05:57:51.260Z,15.57
2023-05-02T06:00:19.477Z,14.07
2023-05-02T06:02:47.735Z,14.23
2023-05-02T06:05:16.842Z,15.83
2023-05-02T06:07:45.478Z,13.37
2023-05-02T06:10:13.997Z,42.17
2023-05-02T06:12:46.644Z,19.53
2023-05-02T06:15:16.167Z,22.87
2023-05-02T06:17:44.679Z,14.83
2023-05-02T06:20:12.968Z,13.30
2023-05-02T06:22:43.685Z,13.63
2023-05-02T06:25:14.426Z,13.87
2023-05-02T06:27:43.455Z,13.43
2023-05-02T06:30:12.069Z,13.50
2023-05-02T06:32:40.596Z,12.00
2023-05-02T06:35:08.950Z,14.80
2023-05-02T06:37:37.284Z,13.50
2023-05-02T06:40:05.817Z,13.37
2023-05-02T06:42:33.944Z,14.23
2023-05-02T06:45:02.337Z,17.33
2023-05-02T06:47:30.474Z,14.60
2023-05-02T06:49:59.084Z,13.67
2023-05-02T06:52:27.483Z,17.50
2023-05-02T06:54:56.022Z,15.87
2023-05-02T06:57:25.046Z,16.10
2023-05-02T06:59:53.184Z,15.13
2023-05-02T07:02:21.657Z,15.27
2023-05-02T07:04:49.474Z,14.40
2023-05-02T07:07:19.274Z,13.23
2023-05-02T07:09:47.279Z,13.40
2023-05-02T07:12:16.959Z,13.17
2023-05-02T07:14:47.385Z,13.40
2023-05-02T07:17:17.933Z,13.50
2023-05-02T07:19:45.896Z,14.37
2023-05-02T07:22:19.617Z,13.93
2023-05-02T07:24:50.061Z,15.23
2023-05-02T07:27:18.711Z,14.70
2023-05-02T07:29:48.393Z,15.03
2023-05-02T07:32:16.077Z,14.73
2023-05-02T07:34:44.526Z,14.93
2023-05-02T07:37:12.820Z,15.80
2023-05-02T07:39:42.011Z,16.00
2023-05-02T07:42:10.429Z,16.40
2023-05-02T07:44:38.976Z,16.90
2023-05-02T07:47:07.493Z,16.57
2023-05-02T07:49:35.740Z,17.40
2023-05-02T07:52:04.121Z,18.50
2023-05-02T07:54:36.491Z,19.27
2023-05-02T07:57:06.185Z,21.47
2023-05-02T07:59:37.621Z,20.07
2023-05-02T08:02:06.742Z,19.90
2023-05-02T08:04:35.580Z,21.67
2023-05-02T08:07:04.161Z,20.67
2023-05-02T08:09:41.121Z,21.90
2023-05-02T08:12:10.176Z,21.43
2023-05-02T08:14:39.162Z,22.70
2023-05-02T08:17:07.597Z,23.50
2023-05-02T08:19:36.048Z,21.57
2023-05-02T08:22:08.210Z,23.93
2023-05-02T08:24:39.248Z,23.73
2023-05-02T08:27:08.167Z,23.83
2023-05-02T08:29:36.523Z,24.57
2023-05-02T08:32:05.216Z,23.23
2023-05-02T08:34:34.265Z,22.33
2023-05-02T08:37:02.877Z,22.33
2023-05-02T08:39:35.733Z,23.40
2023-05-02T08:42:07.144Z,23.53
2023-05-02T08:44:35.480Z,23.63
2023-05-02T08:47:06.266Z,23.80
2023-05-02T08:49:34.554Z,23.57
2023-05-02T08:52:02.923Z,23.63
2023-05-02T08:54:31.224Z,22.70
2023-05-02T08:57:00.411Z,22.33
2023-05-02T08:59:28.523Z,23.27
2023-05-02T09:02:01.238Z,24.57
2023-05-02T09:04:34.084Z,24.33
2023-05-02T09:07:02.779Z,23.57
2023-05-02T09:09:31.771Z,23.10
2023-05-02T09:11:59.386Z,23.20
2023-05-02T09:14:26.823Z,22.80
2023-05-02T09:16:59.861Z,22.23
2023-05-02T09:19:27.946Z,21.40
2023-05-02T09:22:01.489Z,21.97
2023-05-02T09:24:29.836Z,20.80
2023-05-02T09:26:59.013Z,19.57
2023-05-02T09:29:28.307Z,28.07
2023-05-02T09:31:56.757Z,24.07
2023-05-02T09:34:24.734Z,21.10
2023-05-02T09:36:54.479Z,22.10
2023-05-02T09:39:25.462Z,21.40
2023-05-02T09:41:56.194Z,21.97
2023-05-02T09:44:27.775Z,19.73
2023-05-02T09:46:57.408Z,18.80
2023-05-02T09:49:44.959Z,17.87
2023-05-02T09:52:14.262Z,18.10
2023-05-02T09:54:41.924Z,16.60
2023-05-02T09:57:11.305Z,16.33
2023-05-02T09:59:43.024Z,16.30
2023-05-02T10:02:11.659Z,15.87
2023-05-02T10:04:40.348Z,15.47
2023-05-02T10:07:10.319Z,15.90
2023-05-02T10:09:38.308Z,16.73
2023-05-02T10:12:06.778Z,15.97
2023-05-02T10:14:36.988Z,16.17
2023-05-02T10:17:13.307Z,16.77
2023-05-02T10:19:58.868Z,16.17
2023-05-02T10:22:26.601Z,17.37
2023-05-02T10:24:54.298Z,17.47
2023-05-02T10:27:21.934Z,15.30
2023-05-02T10:29:49.678Z,14.40
2023-05-02T10:32:18.866Z,14.00
2023-05-02T10:34:46.975Z,14.25
2023-05-02T10:37:14.206Z,14.25
2023-05-02T10:39:41.441Z,14.20
2023-05-02T10:42:08.943Z,11.88
2023-05-02T10:44:41.253Z,13.25
2023-05-02T10:47:21.779Z,11.95
2023-05-02T10:49:59.877Z,12.52
2023-05-02T10:52:35.198Z,12.63
2023-05-02T10:55:21.972Z,12.35
2023-05-02T10:58:01.091Z,11.80
2023-05-02T11:00:33.809Z,13.00
2023-05-02T11:03:02.041Z,12.45
2023-05-02T11:05:29.496Z,11.73
2023-05-02T11:08:15.770Z,10.98
2023-05-02T11:10:43.398Z,11.48
2023-05-02T11:13:13.101Z,11.80
2023-05-02T11:15:46.746Z,11.57
2023-05-02T11:18:14.798Z,13.00
2023-05-02T11:20:46.111Z,11.50
2023-05-02T11:23:16.833Z,11.10
2023-05-02T11:25:48.095Z,10.60
2023-05-02T11:28:54.714Z,10.48
2023-05-02T11:31:27.758Z,10.10
2023-05-02T11:33:58.141Z,12.25
2023-05-02T11:36:35.855Z,12.35
2023-05-02T11:39:05.534Z,12.07
2023-05-02T11:41:39.923Z,11.70
2023-05-02T11:44:07.377Z,12.05
2023-05-02T11:46:37.510Z,11.60
2023-05-02T11:49:06.865Z,12.52
2023-05-02T11:51:36.306Z,11.68
2023-05-02T11:54:04.215Z,11.05
2023-05-02T11:56:31.711Z,11.45
2023-05-02T11:59:02.856Z,10.30
2023-05-02T12:01:33.059Z,10.40
2023-05-02T12:04:07.928Z,10.38
2023-05-02T12:06:35.650Z,9.88
2023-05-02T12:09:10.237Z,9.90
2023-05-02T12:11:38.399Z,9.65
2023-05-02T12:14:07.037Z,9.50
2023-05-02T12:16:34.797Z,9.55
2023-05-02T12:19:02.256Z,9.70
2023-05-02T12:21:38.459Z,9.45
2023-05-02T12:24:06.401Z,9.30
2023-05-02T12:26:34.006Z,9.55
2023-05-02T12:29:02.962Z,9.65
2023-05-02T12:31:32.400Z,9.93
2023-05-02T12:34:01.141Z,9.60
2023-05-02T12:36:29.467Z,9.07
2023-05-02T12:38:59.685Z,10.35
2023-05-02T12:41:37.953Z,10.32
2023-05-02T12:44:06.264Z,10.43
2023-05-02T12:46:33.526Z,10.25
2023-05-02T12:49:12.298Z,10.05
2023-05-02T12:51:40.768Z,10.57
2023-05-02T12:54:08.153Z,9.13
2023-05-02T12:56:43.861Z,9.02
2023-05-02T12:59:12.292Z,9.25
2023-05-02T13:01:39.755Z,9.32
2023-05-02T13:04:07.177Z,10.10
2023-05-02T13:06:37.798Z,8.88
2023-05-02T13:09:05.277Z,10.30
2023-05-02T13:11:32.996Z,10.10
2023-05-02T13:14:03.782Z,10.05
2023-05-02T13:16:31.584Z,9.45
2023-05-02T13:18:58.964Z,9.48
2023-05-02T13:21:26.144Z,9.52
2023-05-02T13:23:55.532Z,9.35
2023-05-02T13:26:22.780Z,9.70
2023-05-02T13:28:50.314Z,8.63
2023-05-02T13:31:17.502Z,8.63
2023-05-02T13:33:47.628Z,8.27
2023-05-02T13:36:17.449Z,8.35
2023-05-02T13:38:44.866Z,8.35
2023-05-02T13:41:12.203Z,8.55
2023-05-02T13:43:41.915Z,8.43
2023-05-02T13:46:09.225Z,8.98
2023-05-02T13:48:43.541Z,9.20
2023-05-02T13:51:11.421Z,8.27
2023-05-02T13:53:38.681Z,8.35
2023-05-02T13:56:06.120Z,7.95
2023-05-02T13:58:33.427Z,8.10
2023-05-02T14:01:01.210Z,8.70
2023-05-02T14:03:29.598Z,8.13
2023-05-02T14:05:56.926Z,7.75
2023-05-02T14:08:24.343Z,8.18
2023-05-02T14:10:51.662Z,9.85
2023-05-02T14:13:18.942Z,9.88
2023-05-02T14:15:46.329Z,8.68
2023-05-02T14:18:13.750Z,8.75
2023-05-02T14:20:41.002Z,9.07
2023-05-02T14:23:08.301Z,9.82
2023-05-02T14:25:36.319Z,9.13
2023-05-02T14:28:03.965Z,9.60
2023-05-02T14:30:34.418Z,9.63
2023-05-02T14:33:01.805Z,9.57
2023-05-02T14:35:29.080Z,10.07
2023-05-02T14:37:56.409Z,11.18
2023-05-02T14:40:23.753Z,12.30
2023-05-02T14:42:51.268Z,12.48
2023-05-02T14:45:18.620Z,12.20
2023-05-02T14:47:46.011Z,12.40
2023-05-02T14:50:13.304Z,11.85
2023-05-02T14:52:42.003Z,12.55
2023-05-02T14:55:09.701Z,13.07
2023-05-02T14:57:37.359Z,13.07
2023-05-02T15:00:05.819Z,15.85
2023-05-02T15:02:33.377Z,15.13
2023-05-02T15:05:01.501Z,15.98
2023-05-02T15:07:28.889Z,17.30
2023-05-02T15:09:56.180Z,19.38
2023-05-02T15:12:23.640Z,19.52
2023-05-02T15:14:51.071Z,18.90
2023-05-02T15:17:18.255Z,19.33
2023-05-02T15:19:45.635Z,19.02
2023-05-02T15:22:12.948Z,18.70
2023-05-02T15:24:40.247Z,18.27
2023-05-02T15:27:09.557Z,19.20
2023-05-02T15:29:36.869Z,19.20
2023-05-02T15:32:04.259Z,18.55
2023-05-02T15:34:31.846Z,17.48
2023-05-02T15:37:01.311Z,17.65
2023-05-02T15:39:28.595Z,17.77
2023-05-02T15:41:56.964Z,18.02
2023-05-02T15:44:26.204Z,18.98
2023-05-02T15:46:55.233Z,19.23
2023-05-02T15:49:24.574Z,17.35
2023-05-02T15:51:51.855Z,16.70
2023-05-02T15:54:19.168Z,19.00
2023-05-02T15:56:46.824Z,17.50
2023-05-02T15:59:14.036Z,17.80
2023-05-02T16:01:41.346Z,18.33
2023-05-02T16:04:10.012Z,17.25
2023-05-02T16:06:37.563Z,17.80
2023-05-02T16:09:06.556Z,16.58
2023-05-02T16:11:34.254Z,15.75
2023-05-02T16:14:01.552Z,22.95
2023-05-02T16:16:28.997Z,16.00
2023-05-02T16:18:56.376Z,15.38
2023-05-02T16:21:23.603Z,16.70
2023-05-02T16:23:51.582Z,15.60
2023-05-02T16:26:20.276Z,15.65
2023-05-02T16:28:47.492Z,14.35
2023-05-02T16:31:15.267Z,14.52
2023-05-02T16:33:43.066Z,14.60
2023-05-02T16:36:10.909Z,14.30
2023-05-02T16:38:38.217Z,13.75
2023-05-02T16:41:09.018Z,13.25
2023-05-02T16:43:37.736Z,14.13
2023-05-02T16:46:06.096Z,12.75
2023-05-02T16:48:33.897Z,11.63
2023-05-02T16:51:03.300Z,12.73
2023-05-02T16:53:31.660Z,12.95
2023-05-02T16:55:59.936Z,12.80
2023-05-02T16:58:29.141Z,13.70
2023-05-02T17:00:56.858Z,11.73
2023-05-02T17:03:24.242Z,11.70
2023-05-02T17:05:51.561Z,10.88
2023-05-02T17:08:21.666Z,11.40
2023-05-02T17:10:52.604Z,11.13
2023-05-02T17:13:22.989Z,10.73
2023-05-02T17:15:51.154Z,10.90
2023-05-02T17:18:18.573Z,9.90
2023-05-02T17:20:46.158Z,10.18
2023-05-02T17:23:14.647Z,9.63
2023-05-02T17:25:42.058Z,9.73
2023-05-02T17:28:09.482Z,10.40
2023-05-02T17:30:40.086Z,9.20
2023-05-02T17:33:07.386Z,9.55
2023-05-02T17:35:34.636Z,10.35
2023-05-02T17:38:01.897Z,8.98
2023-05-02T17:40:29.892Z,9.45
2023-05-02T17:42:58.907Z,9.50
2023-05-02T17:45:28.853Z,9.00
2023-05-02T17:47:56.683Z,9.23
2023-05-02T17:50:24.046Z,8.52
2023-05-02T17:52:51.725Z,7.63
2023-05-02T17:55:19.306Z,7.65
2023-05-02T17:57:46.652Z,7.80
2023-05-02T18:00:14.936Z,8.40
2023-05-02T18:02:42.267Z,10.32
2023-05-02T18:05:09.737Z,8.27
2023-05-02T18:07:36.997Z,7.97
2023-05-02T18:10:05.366Z,9.32
2023-05-02T18:12:33.743Z,6.40
2023-05-02T18:15:02.995Z,7.00
2023-05-02T18:17:30.919Z,7.25
2023-05-02T18:20:04.546Z,6.68
2023-05-02T18:22:32.305Z,7.03
2023-05-02T18:24:59.599Z,6.43
2023-05-02T18:27:26.979Z,6.35
2023-05-02T18:29:55.634Z,6.65
2023-05-02T18:32:22.921Z,6.60
2023-05-02T18:34:53.248Z,6.23
2023-05-02T18:37:21.142Z,6.80
2023-05-02T18:39:48.381Z,6.78
2023-05-02T18:42:16.293Z,16.47
2023-05-02T18:44:43.504Z,6.90
2023-05-02T18:47:11.059Z,6.70
2023-05-02T18:49:38.454Z,6.47
2023-05-02T18:52:05.975Z,6.40
2023-05-02T18:54:33.698Z,6.30
2023-05-02T18:57:02.160Z,6.17
2023-05-02T18:59:29.743Z,6.40
2023-05-02T19:01:58.319Z,6.60
2023-05-02T19:04:26.250Z,5.77
2023-05-02T19:06:53.609Z,6.30
2023-05-02T19:09:21.903Z,6.60
2023-05-02T19:11:49.198Z,5.77
2023-05-02T19:14:16.570Z,6.10
2023-05-02T19:16:43.855Z,6.17
2023-05-02T19:19:11.204Z,5.93
2023-05-02T19:21:38.575Z,6.23
2023-05-02T19:24:06.046Z,6.10
2023-05-02T19:26:33.898Z,10.23
2023-05-02T19:29:01.523Z,7.67
2023-05-02T19:31:28.823Z,8.63
2023-05-02T19:33:56.099Z,7.47
2023-05-02T19:36:24.733Z,6.87
2023-05-02T19:38:53.755Z,7.50
2023-05-02T19:41:22.269Z,7.27
2023-05-02T19:43:50.623Z,7.50
2023-05-02T19:46:18.599Z,7.50
2023-05-02T19:48:46.117Z,7.70
2023-05-02T19:51:13.683Z,7.80
2023-05-02T19:53:40.957Z,8.70
2023-05-02T19:56:08.478Z,8.20
2023-05-02T19:58:35.967Z,8.20
2023-05-02T20:01:03.505Z,8.30
2023-05-02T20:03:31.029Z,7.60
2023-05-02T20:05:58.667Z,6.93
2023-05-02T20:08:29.555Z,8.97
2023-05-02T20:10:56.974Z,11.30
2023-05-02T20:13:24.432Z,9.67
2023-05-02T20:15:52.638Z,8.97
2023-05-02T20:18:20.451Z,8.53
2023-05-02T20:20:47.676Z,9.17
2023-05-02T20:23:15.336Z,8.10
2023-05-02T20:25:43.105Z,8.67
2023-05-02T20:28:10.696Z,9.77
2023-05-02T20:30:39.827Z,9.93
2023-05-02T20:33:15.545Z,9.47
2023-05-02T20:35:44.451Z,9.70
2023-05-02T20:38:12.945Z,9.53
2023-05-02T20:40:43.455Z,8.17
2023-05-02T20:43:11.951Z,8.13
2023-05-02T20:45:42.269Z,7.87
2023-05-02T20:48:09.529Z,8.00
2023-05-02T20:50:36.770Z,7.40
2023-05-02T20:53:04.592Z,7.43
2023-05-02T20:55:31.836Z,7.50
2023-05-02T20:57:59.024Z,7.43
2023-05-02T21:00:26.253Z,7.50
2023-05-02T21:02:53.573Z,7.37
2023-05-02T21:05:20.979Z,7.40
2023-05-02T21:07:48.202Z,7.20
2023-05-02T21:10:15.935Z,6.50
2023-05-02T21:12:43.170Z,6.53
2023-05-02T21:15:10.762Z,6.27
2023-05-02T21:17:43.743Z,6.63
2023-05-02T21:20:11.342Z,6.57
2023-05-02T21:22:39.750Z,6.00
2023-05-02T21:25:07.146Z,6.40
2023-05-02T21:27:34.488Z,6.87
2023-05-02T21:30:02.148Z,5.97
2023-05-02T21:32:29.899Z,6.10
2023-05-02T21:34:57.157Z,6.50
2023-05-02T21:37:26.308Z,7.10
2023-05-02T21:39:53.673Z,7.27
2023-05-02T21:42:21.002Z,7.47
2023-05-02T21:44:48.283Z,7.73
2023-05-02T21:47:15.895Z,6.80
2023-05-02T21:49:43.239Z,7.43
2023-05-02T21:52:10.612Z,6.77
2023-05-02T21:54:37.892Z,6.60
2023-05-02T21:57:05.409Z,6.47
2023-05-02T21:59:34.651Z,6.73
2023-05-02T22:02:01.898Z,6.60
2023-05-02T22:04:32.388Z,5.63
2023-05-02T22:06:59.610Z,5.90
2023-05-02T22:09:26.842Z,5.90
2023-05-02T22:11:54.281Z,5.40
2023-05-02T22:14:33.674Z,5.43
2023-05-02T22:17:08.648Z,5.57
2023-05-02T22:19:35.826Z,5.60
2023-05-02T22:22:07.014Z,5.40
2023-05-02T22:24:34.633Z,5.50
2023-05-02T22:27:02.721Z,6.60
2023-05-02T22:29:30.077Z,6.80
2023-05-02T22:31:57.389Z,7.63
2023-05-02T22:34:24.907Z,7.53
2023-05-02T22:36:52.216Z,7.60
2023-05-02T22:39:20.418Z,7.73
2023-05-02T22:41:47.570Z,7.57
2023-05-02T22:44:14.873Z,6.97
2023-05-02T22:46:42.199Z,6.83
2023-05-02T22:49:10.493Z,7.57
2023-05-02T22:51:40.747Z,6.87
2023-05-02T22:54:08.497Z,7.10
2023-05-02T22:56:35.866Z,6.67
2023-05-02T22:59:03.467Z,6.13
2023-05-02T23:01:30.724Z,7.03
2023-05-02T23:03:58.075Z,6.60
2023-05-02T23:06:28.875Z,5.93
2023-05-02T23:08:56.308Z,6.20
2023-05-02T23:11:23.462Z,6.37
2023-05-02T23:13:50.906Z,6.67
2023-05-02T23:16:18.385Z,6.00
2023-05-02T23:18:47.496Z,6.10
2023-05-02T23:21:15.314Z,6.20
2023-05-02T23:23:42.598Z,6.83
2023-05-02T23:26:11.134Z,6.40
2023-05-02T23:28:38.723Z,6.73
2023-05-02T23:31:07.059Z,6.73
2023-05-02T23:33:36.359Z,6.53
2023-05-02T23:36:03.706Z,7.07
2023-05-02T23:38:31.355Z,6.40
2023-05-02T23:40:59.044Z,6.33
2023-05-02T23:43:26.786Z,5.87
2023-05-02T23:45:54.024Z,5.87
2023-05-02T23:48:21.695Z,6.40
2023-05-02T23:50:49.017Z,6.60
2023-05-02T23:53:16.261Z,6.20
2023-05-02T23:55:44.459Z,6.10
2023-05-02T23:58:11.848Z,6.17
